sensor_id;sensor_type;location;lat;lon;timestamp;P1;durP1;ratioP1;P2;durP2;ratioP2
8656;SDS011;4366;50.764;7.184;2023-06-14T00:04:38;3.47;;;3.17;;
8656;SDS011;4366;50.764;7.184;2023-06-14T00:09:43;2.90;;;2.70;;
8656;SDS011;4366;50.764;7.184;2023-06-14T00:14:44;3.13;;;2.90;;
8656;SDS011;4366;50.764;7.184;2023-06-14T00:19:46;3.50;;;2.97;;
8656;SDS011;4366;50.764;7.184;2023-06-14T00:24:48;3.63;;;2.87;;
8656;SDS011;4366;50.764;7.184;2023-06-14T00:29:50;2.87;;;2.60;;
8656;SDS011;4366;50.764;7.184;2023-06-14T00:34:51;2.70;;;2.43;;
8656;SDS011;4366;50.764;7.184;2023-06-14T00:39:53;3.00;;;2.80;;
8656;SDS011;4366;50.764;7.184;2023-06-14T00:44:55;3.00;;;2.70;;
8656;SDS011;4366;50.764;7.184;2023-06-14T00:49:58;4.53;;;2.60;;
8656;SDS011;4366;50.764;7.184;2023-06-14T00:55:00;2.90;;;2.70;;
8656;SDS011;4366;50.764;7.184;2023-06-14T01:00:03;3.43;;;2.90;;
8656;SDS011;4366;50.764;7.184;2023-06-14T01:05:10;2.57;;;2.40;;
8656;SDS011;4366;50.764;7.184;2023-06-14T01:15:33;4.47;;;2.83;;
8656;SDS011;4366;50.764;7.184;2023-06-14T01:20:36;2.83;;;2.63;;
8656;SDS011;4366;50.764;7.184;2023-06-14T01:25:41;2.90;;;2.60;;
8656;SDS011;4366;50.764;7.184;2023-06-14T01:30:50;3.07;;;2.77;;
8656;SDS011;4366;50.764;7.184;2023-06-14T01:35:54;2.90;;;2.70;;
8656;SDS011;4366;50.764;7.184;2023-06-14T01:40:56;2.90;;;2.60;;
8656;SDS011;4366;50.764;7.184;2023-06-14T01:46:00;2.63;;;2.43;;
8656;SDS011;4366;50.764;7.184;2023-06-14T01:51:02;2.83;;;2.57;;
8656;SDS011;4366;50.764;7.184;2023-06-14T01:56:04;2.80;;;2.60;;
8656;SDS011;4366;50.764;7.184;2023-06-14T02:01:06;2.73;;;2.53;;
8656;SDS011;4366;50.764;7.184;2023-06-14T02:06:08;2.97;;;2.77;;
8656;SDS011;4366;50.764;7.184;2023-06-14T02:11:13;2.73;;;2.53;;
8656;SDS011;4366;50.764;7.184;2023-06-14T02:16:14;3.27;;;2.97;;
8656;SDS011;4366;50.764;7.184;2023-06-14T02:21:18;2.63;;;2.43;;
8656;SDS011;4366;50.764;7.184;2023-06-14T02:26:20;3.30;;;2.47;;
8656;SDS011;4366;50.764;7.184;2023-06-14T02:31:22;2.80;;;2.50;;
8656;SDS011;4366;50.764;7.184;2023-06-14T02:36:23;4.17;;;2.90;;
8656;SDS011;4366;50.764;7.184;2023-06-14T02:41:26;3.30;;;2.70;;
8656;SDS011;4366;50.764;7.184;2023-06-14T02:46:28;2.77;;;2.57;;
8656;SDS011;4366;50.764;7.184;2023-06-14T02:51:30;2.80;;;2.60;;
8656;SDS011;4366;50.764;7.184;2023-06-14T02:56:31;3.17;;;2.97;;
8656;SDS011;4366;50.764;7.184;2023-06-14T03:01:33;3.20;;;3.00;;
8656;SDS011;4366;50.764;7.184;2023-06-14T03:06:40;2.67;;;2.47;;
8656;SDS011;4366;50.764;7.184;2023-06-14T03:11:42;3.20;;;3.00;;
8656;SDS011;4366;50.764;7.184;2023-06-14T03:16:45;3.57;;;3.00;;
8656;SDS011;4366;50.764;7.184;2023-06-14T03:21:48;2.90;;;2.70;;
8656;SDS011;4366;50.764;7.184;2023-06-14T03:26:50;3.90;;;2.80;;
8656;SDS011;4366;50.764;7.184;2023-06-14T03:31:59;3.23;;;2.70;;
8656;SDS011;4366;50.764;7.184;2023-06-14T03:37:09;2.80;;;2.60;;
8656;SDS011;4366;50.764;7.184;2023-06-14T03:42:13;2.93;;;2.70;;
8656;SDS011;4366;50.764;7.184;2023-06-14T03:47:16;4.47;;;2.90;;
8656;SDS011;4366;50.764;7.184;2023-06-14T03:52:18;4.50;;;2.70;;
8656;SDS011;4366;50.764;7.184;2023-06-14T03:57:22;3.13;;;2.90;;
8656;SDS011;4366;50.764;7.184;2023-06-14T04:02:25;2.63;;;2.43;;
8656;SDS011;4366;50.764;7.184;2023-06-14T04:07:30;2.87;;;2.67;;
8656;SDS011;4366;50.764;7.184;2023-06-14T04:12:31;2.83;;;2.63;;
8656;SDS011;4366;50.764;7.184;2023-06-14T04:17:33;2.90;;;2.70;;
8656;SDS011;4366;50.764;7.184;2023-06-14T04:22:37;3.33;;;2.67;;
8656;SDS011;4366;50.764;7.184;2023-06-14T04:27:40;2.93;;;2.73;;
8656;SDS011;4366;50.764;7.184;2023-06-14T04:32:44;2.93;;;2.70;;
8656;SDS011;4366;50.764;7.184;2023-06-14T04:37:47;4.07;;;2.80;;
8656;SDS011;4366;50.764;7.184;2023-06-14T04:42:49;3.10;;;2.80;;
8656;SDS011;4366;50.764;7.184;2023-06-14T04:47:53;3.00;;;2.70;;
8656;SDS011;4366;50.764;7.184;2023-06-14T04:53:01;4.70;;;2.63;;
8656;SDS011;4366;50.764;7.184;2023-06-14T04:58:02;3.00;;;2.70;;
8656;SDS011;4366;50.764;7.184;2023-06-14T05:03:04;3.03;;;2.40;;
8656;SDS011;4366;50.764;7.184;2023-06-14T05:08:07;2.70;;;2.50;;
8656;SDS011;4366;50.764;7.184;2023-06-14T05:13:11;2.53;;;2.33;;
8656;SDS011;4366;50.764;7.184;2023-06-14T05:18:13;2.80;;;2.60;;
8656;SDS011;4366;50.764;7.184;2023-06-14T05:23:16;2.50;;;2.30;;
8656;SDS011;4366;50.764;7.184;2023-06-14T05:28:18;2.93;;;2.70;;
8656;SDS011;4366;50.764;7.184;2023-06-14T05:33:20;2.97;;;2.78;;
8656;SDS011;4366;50.764;7.184;2023-06-14T05:38:22;2.60;;;2.40;;
8656;SDS011;4366;50.764;7.184;2023-06-14T05:43:24;2.13;;;1.93;;
8656;SDS011;4366;50.764;7.184;2023-06-14T05:48:25;2.07;;;1.93;;
8656;SDS011;4366;50.764;7.184;2023-06-14T05:53:27;2.22;;;1.98;;
8656;SDS011;4366;50.764;7.184;2023-06-14T05:58:29;3.40;;;2.00;;
8656;SDS011;4366;50.764;7.184;2023-06-14T06:03:31;2.47;;;2.28;;
8656;SDS011;4366;50.764;7.184;2023-06-14T06:08:33;1.90;;;1.80;;
8656;SDS011;4366;50.764;7.184;2023-06-14T06:13:36;2.05;;;1.95;;
8656;SDS011;4366;50.764;7.184;2023-06-14T06:18:39;1.98;;;1.80;;
8656;SDS011;4366;50.764;7.184;2023-06-14T06:23:42;2.92;;;2.03;;
8656;SDS011;4366;50.764;7.184;2023-06-14T06:28:44;2.20;;;2.10;;
8656;SDS011;4366;50.764;7.184;2023-06-14T06:33:46;2.05;;;1.80;;
8656;SDS011;4366;50.764;7.184;2023-06-14T06:38:48;2.45;;;2.00;;
8656;SDS011;4366;50.764;7.184;2023-06-14T06:43:49;1.88;;;1.77;;
8656;SDS011;4366;50.764;7.184;2023-06-14T06:48:51;1.83;;;1.73;;
8656;SDS011;4366;50.764;7.184;2023-06-14T06:53:54;2.00;;;1.90;;
8656;SDS011;4366;50.764;7.184;2023-06-14T06:58:55;1.90;;;1.80;;
8656;SDS011;4366;50.764;7.184;2023-06-14T07:03:57;1.60;;;1.50;;
8656;SDS011;4366;50.764;7.184;2023-06-14T07:08:59;1.80;;;1.70;;
8656;SDS011;4366;50.764;7.184;2023-06-14T07:14:02;1.98;;;1.67;;
8656;SDS011;4366;50.764;7.184;2023-06-14T07:19:04;1.65;;;1.55;;
8656;SDS011;4366;50.764;7.184;2023-06-14T07:24:06;1.33;;;1.33;;
8656;SDS011;4366;50.764;7.184;2023-06-14T07:29:09;1.60;;;1.50;;
8656;SDS011;4366;50.764;7.184;2023-06-14T07:34:11;1.45;;;1.40;;
8656;SDS011;4366;50.764;7.184;2023-06-14T07:39:12;1.45;;;1.35;;
8656;SDS011;4366;50.764;7.184;2023-06-14T07:44:15;1.25;;;1.25;;
8656;SDS011;4366;50.764;7.184;2023-06-14T07:49:17;1.00;;;1.00;;
8656;SDS011;4366;50.764;7.184;2023-06-14T07:54:19;1.50;;;1.40;;
8656;SDS011;4366;50.764;7.184;2023-06-14T07:59:26;0.77;;;0.77;;
8656;SDS011;4366;50.764;7.184;2023-06-14T08:04:27;1.50;;;1.40;;
8656;SDS011;4366;50.764;7.184;2023-06-14T08:09:29;5.50;;;1.85;;
8656;SDS011;4366;50.764;7.184;2023-06-14T08:14:32;1.02;;;1.02;;
8656;SDS011;4366;50.764;7.184;2023-06-14T08:19:34;1.20;;;1.20;;
8656;SDS011;4366;50.764;7.184;2023-06-14T08:24:36;1.33;;;1.23;;
8656;SDS011;4366;50.764;7.184;2023-06-14T08:29:37;1.00;;;1.00;;
8656;SDS011;4366;50.764;7.184;2023-06-14T08:34:41;1.20;;;1.10;;
8656;SDS011;4366;50.764;7.184;2023-06-14T08:39:56;1.02;;;1.02;;
8656;SDS011;4366;50.764;7.184;2023-06-14T08:44:58;1.67;;;1.10;;
8656;SDS011;4366;50.764;7.184;2023-06-14T08:50:01;0.85;;;0.85;;
8656;SDS011;4366;50.764;7.184;2023-06-14T08:55:23;0.80;;;0.80;;
8656;SDS011;4366;50.764;7.184;2023-06-14T09:00:28;1.05;;;0.95;;
8656;SDS011;4366;50.764;7.184;2023-06-14T09:05:32;1.20;;;1.10;;
8656;SDS011;4366;50.764;7.184;2023-06-14T09:10:35;0.85;;;0.85;;
8656;SDS011;4366;50.764;7.184;2023-06-14T09:15:40;0.90;;;0.90;;
8656;SDS011;4366;50.764;7.184;2023-06-14T09:20:42;0.80;;;0.80;;
8656;SDS011;4366;50.764;7.184;2023-06-14T09:25:45;1.08;;;1.05;;
8656;SDS011;4366;50.764;7.184;2023-06-14T09:30:47;2.05;;;1.00;;
8656;SDS011;4366;50.764;7.184;2023-06-14T09:35:54;1.00;;;1.00;;
8656;SDS011;4366;50.764;7.184;2023-06-14T09:40:57;0.82;;;0.82;;
8656;SDS011;4366;50.764;7.184;2023-06-14T09:46:02;0.90;;;0.90;;
8656;SDS011;4366;50.764;7.184;2023-06-14T09:51:05;1.10;;;1.02;;
8656;SDS011;4366;50.764;7.184;2023-06-14T09:56:07;1.10;;;1.00;;
8656;SDS011;4366;50.764;7.184;2023-06-14T10:01:09;1.00;;;1.00;;
8656;SDS011;4366;50.764;7.184;2023-06-14T10:06:14;0.90;;;0.90;;
8656;SDS011;4366;50.764;7.184;2023-06-14T10:11:16;1.00;;;1.00;;
8656;SDS011;4366;50.764;7.184;2023-06-14T10:16:27;2.35;;;1.27;;
8656;SDS011;4366;50.764;7.184;2023-06-14T10:21:41;0.85;;;0.85;;
8656;SDS011;4366;50.764;7.184;2023-06-14T10:26:51;1.10;;;1.10;;
8656;SDS011;4366;50.764;7.184;2023-06-14T10:32:15;0.98;;;0.98;;
8656;SDS011;4366;50.764;7.184;2023-06-14T10:37:17;0.90;;;0.90;;
8656;SDS011;4366;50.764;7.184;2023-06-14T10:42:19;1.20;;;1.10;;
8656;SDS011;4366;50.764;7.184;2023-06-14T10:47:23;1.20;;;1.20;;
8656;SDS011;4366;50.764;7.184;2023-06-14T10:52:26;1.10;;;1.10;;
8656;SDS011;4366;50.764;7.184;2023-06-14T10:57:30;1.33;;;1.23;;
8656;SDS011;4366;50.764;7.184;2023-06-14T11:08:19;0.90;;;0.90;;
8656;SDS011;4366;50.764;7.184;2023-06-14T11:13:26;1.73;;;1.30;;
8656;SDS011;4366;50.764;7.184;2023-06-14T11:18:31;1.55;;;1.45;;
8656;SDS011;4366;50.764;7.184;2023-06-14T11:23:33;0.90;;;0.90;;
8656;SDS011;4366;50.764;7.184;2023-06-14T11:28:38;1.00;;;1.00;;
8656;SDS011;4366;50.764;7.184;2023-06-14T11:33:41;0.95;;;0.95;;
8656;SDS011;4366;50.764;7.184;2023-06-14T11:38:43;0.90;;;0.90;;
8656;SDS011;4366;50.764;7.184;2023-06-14T11:43:45;0.88;;;0.88;;
8656;SDS011;4366;50.764;7.184;2023-06-14T11:48:47;0.57;;;0.57;;
8656;SDS011;4366;50.764;7.184;2023-06-14T11:53:49;0.93;;;0.93;;
8656;SDS011;4366;50.764;7.184;2023-06-14T11:58:52;1.27;;;0.75;;
8656;SDS011;4366;50.764;7.184;2023-06-14T12:03:54;0.60;;;0.60;;
8656;SDS011;4366;50.764;7.184;2023-06-14T12:08:56;0.70;;;0.70;;
8656;SDS011;4366;50.764;7.184;2023-06-14T12:13:58;0.90;;;0.90;;
8656;SDS011;4366;50.764;7.184;2023-06-14T12:19:00;1.00;;;1.00;;
8656;SDS011;4366;50.764;7.184;2023-06-14T12:24:03;0.65;;;0.65;;
8656;SDS011;4366;50.764;7.184;2023-06-14T12:29:08;1.15;;;0.60;;
8656;SDS011;4366;50.764;7.184;2023-06-14T12:34:10;0.88;;;0.88;;
8656;SDS011;4366;50.764;7.184;2023-06-14T12:39:12;1.70;;;1.02;;
8656;SDS011;4366;50.764;7.184;2023-06-14T12:44:14;1.55;;;1.45;;
8656;SDS011;4366;50.764;7.184;2023-06-14T12:49:16;1.10;;;1.10;;
8656;SDS011;4366;50.764;7.184;2023-06-14T12:54:18;1.02;;;1.02;;
8656;SDS011;4366;50.764;7.184;2023-06-14T12:59:39;1.10;;;1.10;;
8656;SDS011;4366;50.764;7.184;2023-06-14T13:04:41;1.15;;;1.15;;
8656;SDS011;4366;50.764;7.184;2023-06-14T13:09:43;1.20;;;1.20;;
8656;SDS011;4366;50.764;7.184;2023-06-14T13:14:45;1.13;;;1.13;;
8656;SDS011;4366;50.764;7.184;2023-06-14T13:19:47;1.20;;;1.20;;
8656;SDS011;4366;50.764;7.184;2023-06-14T13:24:49;1.13;;;1.13;;
8656;SDS011;4366;50.764;7.184;2023-06-14T13:29:50;1.48;;;1.10;;
8656;SDS011;4366;50.764;7.184;2023-06-14T13:34:52;1.30;;;1.20;;
8656;SDS011;4366;50.764;7.184;2023-06-14T13:39:54;1.48;;;0.95;;
8656;SDS011;4366;50.764;7.184;2023-06-14T13:44:56;2.42;;;1.38;;
8656;SDS011;4366;50.764;7.184;2023-06-14T13:49:58;1.17;;;1.15;;
8656;SDS011;4366;50.764;7.184;2023-06-14T13:55:00;1.13;;;1.13;;
8656;SDS011;4366;50.764;7.184;2023-06-14T14:00:16;1.20;;;1.20;;
8656;SDS011;4366;50.764;7.184;2023-06-14T14:05:22;1.10;;;1.10;;
8656;SDS011;4366;50.764;7.184;2023-06-14T14:10:29;1.30;;;1.30;;
8656;SDS011;4366;50.764;7.184;2023-06-14T14:15:31;1.17;;;1.17;;
8656;SDS011;4366;50.764;7.184;2023-06-14T14:20:36;1.00;;;1.00;;
8656;SDS011;4366;50.764;7.184;2023-06-14T14:25:37;1.27;;;1.27;;
8656;SDS011;4366;50.764;7.184;2023-06-14T14:30:39;1.23;;;1.13;;
8656;SDS011;4366;50.764;7.184;2023-06-14T14:35:42;1.27;;;1.27;;
8656;SDS011;4366;50.764;7.184;2023-06-14T14:40:44;0.82;;;0.82;;
8656;SDS011;4366;50.764;7.184;2023-06-14T14:45:46;1.30;;;1.30;;
8656;SDS011;4366;50.764;7.184;2023-06-14T14:50:48;1.08;;;1.08;;
8656;SDS011;4366;50.764;7.184;2023-06-14T14:55:49;1.20;;;1.20;;
8656;SDS011;4366;50.764;7.184;2023-06-14T15:00:52;1.35;;;1.17;;
8656;SDS011;4366;50.764;7.184;2023-06-14T15:05:54;1.08;;;1.08;;
8656;SDS011;4366;50.764;7.184;2023-06-14T15:10:57;1.20;;;1.20;;
8656;SDS011;4366;50.764;7.184;2023-06-14T15:15:59;1.17;;;1.17;;
8656;SDS011;4366;50.764;7.184;2023-06-14T15:21:01;1.20;;;1.15;;
8656;SDS011;4366;50.764;7.184;2023-06-14T15:26:02;1.20;;;1.20;;
8656;SDS011;4366;50.764;7.184;2023-06-14T15:31:04;1.05;;;1.00;;
8656;SDS011;4366;50.764;7.184;2023-06-14T15:36:06;1.35;;;1.27;;
8656;SDS011;4366;50.764;7.184;2023-06-14T15:41:10;1.20;;;1.20;;
8656;SDS011;4366;50.764;7.184;2023-06-14T15:46:12;1.48;;;1.40;;
8656;SDS011;4366;50.764;7.184;2023-06-14T15:51:15;1.50;;;1.45;;
8656;SDS011;4366;50.764;7.184;2023-06-14T15:56:16;1.45;;;1.35;;
8656;SDS011;4366;50.764;7.184;2023-06-14T16:01:21;1.50;;;1.40;;
8656;SDS011;4366;50.764;7.184;2023-06-14T16:06:23;1.20;;;1.20;;
8656;SDS011;4366;50.764;7.184;2023-06-14T16:11:25;1.33;;;1.23;;
8656;SDS011;4366;50.764;7.184;2023-06-14T16:16:27;1.27;;;1.20;;
8656;SDS011;4366;50.764;7.184;2023-06-14T16:21:29;1.33;;;1.27;;
8656;SDS011;4366;50.764;7.184;2023-06-14T16:26:34;1.38;;;1.33;;
8656;SDS011;4366;50.764;7.184;2023-06-14T16:31:36;1.63;;;1.52;;
8656;SDS011;4366;50.764;7.184;2023-06-14T16:36:38;1.67;;;1.58;;
8656;SDS011;4366;50.764;7.184;2023-06-14T16:41:40;1.60;;;1.50;;
8656;SDS011;4366;50.764;7.184;2023-06-14T16:46:41;1.00;;;1.00;;
8656;SDS011;4366;50.764;7.184;2023-06-14T16:51:43;1.60;;;1.50;;
8656;SDS011;4366;50.764;7.184;2023-06-14T16:56:45;1.40;;;1.40;;
8656;SDS011;4366;50.764;7.184;2023-06-14T17:01:49;1.75;;;1.65;;
8656;SDS011;4366;50.764;7.184;2023-06-14T17:06:51;1.45;;;1.40;;
8656;SDS011;4366;50.764;7.184;2023-06-14T17:11:53;1.40;;;1.40;;
8656;SDS011;4366;50.764;7.184;2023-06-14T17:16:55;1.50;;;1.40;;
8656;SDS011;4366;50.764;7.184;2023-06-14T17:21:56;1.25;;;1.25;;
8656;SDS011;4366;50.764;7.184;2023-06-14T17:26:59;1.52;;;1.42;;
8656;SDS011;4366;50.764;7.184;2023-06-14T17:32:01;1.73;;;1.63;;
8656;SDS011;4366;50.764;7.184;2023-06-14T17:37:03;1.38;;;1.38;;
8656;SDS011;4366;50.764;7.184;2023-06-14T17:42:06;1.17;;;1.17;;
8656;SDS011;4366;50.764;7.184;2023-06-14T17:47:08;1.52;;;1.42;;
8656;SDS011;4366;50.764;7.184;2023-06-14T17:52:19;2.35;;;1.40;;
8656;SDS011;4366;50.764;7.184;2023-06-14T17:57:22;1.50;;;1.40;;
8656;SDS011;4366;50.764;7.184;2023-06-14T18:02:23;1.40;;;1.30;;
8656;SDS011;4366;50.764;7.184;2023-06-14T18:07:25;1.30;;;1.30;;
8656;SDS011;4366;50.764;7.184;2023-06-14T18:12:27;1.45;;;1.35;;
8656;SDS011;4366;50.764;7.184;2023-06-14T18:17:28;1.60;;;1.50;;
8656;SDS011;4366;50.764;7.184;2023-06-14T18:22:30;1.20;;;1.10;;
8656;SDS011;4366;50.764;7.184;2023-06-14T18:27:32;1.50;;;1.40;;
8656;SDS011;4366;50.764;7.184;2023-06-14T18:32:33;2.10;;;1.45;;
8656;SDS011;4366;50.764;7.184;2023-06-14T18:37:36;1.52;;;1.40;;
8656;SDS011;4366;50.764;7.184;2023-06-14T18:42:38;1.65;;;1.55;;
8656;SDS011;4366;50.764;7.184;2023-06-14T18:47:40;1.88;;;1.63;;
8656;SDS011;4366;50.764;7.184;2023-06-14T18:52:42;1.70;;;1.60;;
8656;SDS011;4366;50.764;7.184;2023-06-14T18:57:45;1.15;;;1.15;;
8656;SDS011;4366;50.764;7.184;2023-06-14T19:02:47;1.90;;;1.80;;
8656;SDS011;4366;50.764;7.184;2023-06-14T19:07:49;1.27;;;1.27;;
8656;SDS011;4366;50.764;7.184;2023-06-14T19:12:51;1.50;;;1.40;;
8656;SDS011;4366;50.764;7.184;2023-06-14T19:17:56;1.45;;;1.40;;
8656;SDS011;4366;50.764;7.184;2023-06-14T19:22:59;1.50;;;1.50;;
8656;SDS011;4366;50.764;7.184;2023-06-14T19:28:01;1.30;;;1.30;;
8656;SDS011;4366;50.764;7.184;2023-06-14T19:33:03;1.52;;;1.52;;
8656;SDS011;4366;50.764;7.184;2023-06-14T19:38:04;1.60;;;1.50;;
8656;SDS011;4366;50.764;7.184;2023-06-14T19:43:06;1.83;;;1.73;;
8656;SDS011;4366;50.764;7.184;2023-06-14T19:48:08;1.77;;;1.67;;
8656;SDS011;4366;50.764;7.184;2023-06-14T19:53:21;2.15;;;1.42;;
8656;SDS011;4366;50.764;7.184;2023-06-14T19:58:23;1.60;;;1.50;;
8656;SDS011;4366;50.764;7.184;2023-06-14T20:03:25;1.80;;;1.70;;
8656;SDS011;4366;50.764;7.184;2023-06-14T20:08:27;3.42;;;2.03;;
8656;SDS011;4366;50.764;7.184;2023-06-14T20:13:31;2.03;;;1.80;;
8656;SDS011;4366;50.764;7.184;2023-06-14T20:18:33;1.95;;;1.85;;
8656;SDS011;4366;50.764;7.184;2023-06-14T20:23:35;1.52;;;1.42;;
8656;SDS011;4366;50.764;7.184;2023-06-14T20:28:37;2.00;;;1.90;;
8656;SDS011;4366;50.764;7.184;2023-06-14T20:33:39;1.80;;;1.70;;
8656;SDS011;4366;50.764;7.184;2023-06-14T20:38:40;2.10;;;1.63;;
8656;SDS011;4366;50.764;7.184;2023-06-14T20:43:43;2.00;;;1.88;;
8656;SDS011;4366;50.764;7.184;2023-06-14T20:48:45;1.90;;;1.80;;
8656;SDS011;4366;50.764;7.184;2023-06-14T20:53:48;2.10;;;2.00;;
8656;SDS011;4366;50.764;7.184;2023-06-14T20:58:49;1.80;;;1.70;;
8656;SDS011;4366;50.764;7.184;2023-06-14T21:03:51;1.88;;;1.77;;
8656;SDS011;4366;50.764;7.184;2023-06-14T21:08:53;1.92;;;1.83;;
8656;SDS011;4366;50.764;7.184;2023-06-14T21:13:55;1.70;;;1.60;;
8656;SDS011;4366;50.764;7.184;2023-06-14T21:18:57;1.77;;;1.67;;
8656;SDS011;4366;50.764;7.184;2023-06-14T21:23:58;1.90;;;1.80;;
8656;SDS011;4366;50.764;7.184;2023-06-14T21:29:00;1.90;;;1.80;;
8656;SDS011;4366;50.764;7.184;2023-06-14T21:34:05;1.80;;;1.70;;
8656;SDS011;4366;50.764;7.184;2023-06-14T21:39:06;1.73;;;1.63;;
8656;SDS011;4366;50.764;7.184;2023-06-14T21:44:08;1.90;;;1.80;;
8656;SDS011;4366;50.764;7.184;2023-06-14T21:49:10;1.73;;;1.63;;
8656;SDS011;4366;50.764;7.184;2023-06-14T21:54:11;2.03;;;1.93;;
8656;SDS011;4366;50.764;7.184;2023-06-14T21:59:14;1.80;;;1.70;;
8656;SDS011;4366;50.764;7.184;2023-06-14T22:04:15;2.10;;;1.90;;
8656;SDS011;4366;50.764;7.184;2023-06-14T22:09:17;1.83;;;1.73;;
8656;SDS011;4366;50.764;7.184;2023-06-14T22:14:19;1.77;;;1.67;;
8656;SDS011;4366;50.764;7.184;2023-06-14T22:19:22;1.73;;;1.63;;
8656;SDS011;4366;50.764;7.184;2023-06-14T22:24:24;2.40;;;2.20;;
8656;SDS011;4366;50.764;7.184;2023-06-14T22:29:26;1.83;;;1.70;;
8656;SDS011;4366;50.764;7.184;2023-06-14T22:34:30;1.93;;;1.73;;
8656;SDS011;4366;50.764;7.184;2023-06-14T22:39:34;1.70;;;1.60;;
8656;SDS011;4366;50.764;7.184;2023-06-14T22:44:35;2.67;;;2.40;;
8656;SDS011;4366;50.764;7.184;2023-06-14T22:49:38;1.70;;;1.60;;
8656;SDS011;4366;50.764;7.184;2023-06-14T22:54:40;2.30;;;2.10;;
8656;SDS011;4366;50.764;7.184;2023-06-14T22:59:51;2.37;;;2.10;;
8656;SDS011;4366;50.764;7.184;2023-06-14T23:04:53;3.13;;;2.23;;
8656;SDS011;4366;50.764;7.184;2023-06-14T23:09:56;2.87;;;2.00;;
8656;SDS011;4366;50.764;7.184;2023-06-14T23:14:59;1.80;;;1.70;;
8656;SDS011;4366;50.764;7.184;2023-06-14T23:20:04;2.27;;;2.17;;
8656;SDS011;4366;50.764;7.184;2023-06-14T23:25:09;1.97;;;1.87;;
8656;SDS011;4366;50.764;7.184;2023-06-14T23:30:11;1.90;;;1.80;;
8656;SDS011;4366;50.764;7.184;2023-06-14T23:35:14;1.80;;;1.70;;
8656;SDS011;4366;50.764;7.184;2023-06-14T23:40:19;1.67;;;1.60;;
8656;SDS011;4366;50.764;7.184;2023-06-14T23:45:21;1.80;;;1.70;;
8656;SDS011;4366;50.764;7.184;2023-06-14T23:50:26;1.90;;;1.80;;
8656;SDS011;4366;50.764;7.184;2023-06-14T23:55:27;2.07;;;1.97;;
